sensor_id;sensor_type;location;lat;lon;timestamp;pressure;altitude;pressure_sealevel;temperature;humidity
69848;BME280;57143;55.940;37.496;2023-02-05T00:01:25;97324.69;;;-1.92;100.00
69848;BME280;57143;55.940;37.496;2023-02-05T00:03:52;97352.91;;;-1.85;100.00
69848;BME280;57143;55.940;37.496;2023-02-05T00:06:19;97356.00;;;-1.81;100.00
69848;BME280;57143;55.940;37.496;2023-02-05T00:08:47;97358.22;;;-1.85;100.00
69848;BME280;57143;55.940;37.496;2023-02-05T00:11:14;97386.41;;;-1.77;100.00
69848;BME280;57143;55.940;37.496;2023-02-05T00:13:43;97367.25;;;-1.73;100.00
69848;BME280;57143;55.940;37.496;2023-02-05T00:16:12;97354.91;;;-1.93;100.00
69848;BME280;57143;55.940;37.496;2023-02-05T00:18:40;97389.41;;;-1.93;100.00
69848;BME280;57143;55.940;37.496;2023-02-05T00:21:08;97396.59;;;-1.81;100.00
69848;BME280;57143;55.940;37.496;2023-02-05T00:23:36;97400.13;;;-1.74;100.00
69848;BME280;57143;55.940;37.496;2023-02-05T00:26:05;97410.44;;;-1.92;100.00
69848;BME280;57143;55.940;37.496;2023-02-05T00:28:33;97409.38;;;-1.97;100.00
69848;BME280;57143;55.940;37.496;2023-02-05T00:31:06;97303.06;;;-2.64;100.00
69848;BME280;57143;55.940;37.496;2023-02-05T00:33:34;97440.44;;;-1.91;100.00
69848;BME280;57143;55.940;37.496;2023-02-05T00:36:02;97418.50;;;-2.06;100.00
69848;BME280;57143;55.940;37.496;2023-02-05T00:38:29;97462.41;;;-1.76;100.00
69848;BME280;57143;55.940;37.496;2023-02-05T00:40:56;97456.59;;;-1.86;100.00
69848;BME280;57143;55.940;37.496;2023-02-05T00:43:24;97479.59;;;-2.00;100.00
69848;BME280;57143;55.940;37.496;2023-02-05T00:45:51;97475.97;;;-2.20;100.00
69848;BME280;57143;55.940;37.496;2023-02-05T00:48:20;97492.59;;;-2.05;100.00
69848;BME280;57143;55.940;37.496;2023-02-05T00:50:47;97510.25;;;-2.18;100.00
69848;BME280;57143;55.940;37.496;2023-02-05T00:53:14;97487.59;;;-2.21;100.00
69848;BME280;57143;55.940;37.496;2023-02-05T00:55:41;97478.41;;;-2.18;100.00
69848;BME280;57143;55.940;37.496;2023-02-05T00:58:08;97509.41;;;-1.98;100.00
69848;BME280;57143;55.940;37.496;2023-02-05T01:00:36;97487.84;;;-2.16;100.00
69848;BME280;57143;55.940;37.496;2023-02-05T01:03:03;97532.31;;;-2.18;100.00
69848;BME280;57143;55.940;37.496;2023-02-05T01:05:32;97525.00;;;-2.16;100.00
69848;BME280;57143;55.940;37.496;2023-02-05T01:07:59;97517.72;;;-2.28;100.00
69848;BME280;57143;55.940;37.496;2023-02-05T01:10:26;97514.03;;;-2.27;100.00
69848;BME280;57143;55.940;37.496;2023-02-05T01:12:54;97524.56;;;-2.19;100.00
69848;BME280;57143;55.940;37.496;2023-02-05T01:15:21;97450.75;;;-2.58;100.00
69848;BME280;57143;55.940;37.496;2023-02-05T01:17:48;97522.88;;;-2.20;100.00
69848;BME280;57143;55.940;37.496;2023-02-05T01:20:16;97515.31;;;-2.23;100.00
69848;BME280;57143;55.940;37.496;2023-02-05T01:22:45;97458.13;;;-2.54;100.00
69848;BME280;57143;55.940;37.496;2023-02-05T01:25:12;97516.00;;;-2.36;100.00
69848;BME280;57143;55.940;37.496;2023-02-05T01:27:39;97512.56;;;-2.37;100.00
69848;BME280;57143;55.940;37.496;2023-02-05T01:30:07;97520.75;;;-2.31;100.00
69848;BME280;57143;55.940;37.496;2023-02-05T01:32:36;97502.88;;;-2.44;100.00
69848;BME280;57143;55.940;37.496;2023-02-05T01:35:04;97510.66;;;-2.43;100.00
69848;BME280;57143;55.940;37.496;2023-02-05T01:37:31;97498.84;;;-2.40;100.00
69848;BME280;57143;55.940;37.496;2023-02-05T01:40:00;97521.75;;;-2.33;100.00
69848;BME280;57143;55.940;37.496;2023-02-05T01:42:28;97473.59;;;-2.57;100.00
69848;BME280;57143;55.940;37.496;2023-02-05T01:45:37;97528.19;;;-2.20;100.00
69848;BME280;57143;55.940;37.496;2023-02-05T01:48:08;97522.94;;;-2.14;100.00
69848;BME280;57143;55.940;37.496;2023-02-05T01:50:37;97516.00;;;-2.36;100.00
69848;BME280;57143;55.940;37.496;2023-02-05T01:53:09;97488.50;;;-2.56;100.00
69848;BME280;57143;55.940;37.496;2023-02-05T01:55:44;97521.69;;;-2.18;100.00
69848;BME280;57143;55.940;37.496;2023-02-05T01:58:13;97517.81;;;-2.15;100.00
69848;BME280;57143;55.940;37.496;2023-02-05T02:00:40;97515.63;;;-2.12;100.00
69848;BME280;57143;55.940;37.496;2023-02-05T02:03:09;97500.97;;;-2.29;100.00
69848;BME280;57143;55.940;37.496;2023-02-05T02:05:37;97538.94;;;-2.28;100.00
69848;BME280;57143;55.940;37.496;2023-02-05T02:08:04;97556.56;;;-2.42;100.00
69848;BME280;57143;55.940;37.496;2023-02-05T02:10:32;97549.56;;;-2.28;100.00
69848;BME280;57143;55.940;37.496;2023-02-05T02:13:02;97539.69;;;-2.13;100.00
69848;BME280;57143;55.940;37.496;2023-02-05T02:15:29;97544.16;;;-2.14;100.00
69848;BME280;57143;55.940;37.496;2023-02-05T02:18:00;97546.41;;;-2.17;100.00
69848;BME280;57143;55.940;37.496;2023-02-05T02:20:42;97548.22;;;-2.18;100.00
69848;BME280;57143;55.940;37.496;2023-02-05T02:23:15;97549.22;;;-2.19;100.00
69848;BME280;57143;55.940;37.496;2023-02-05T02:26:16;97533.88;;;-2.23;100.00
69848;BME280;57143;55.940;37.496;2023-02-05T02:28:51;97523.22;;;-2.30;100.00
69848;BME280;57143;55.940;37.496;2023-02-05T02:31:26;97558.25;;;-2.13;100.00
69848;BME280;57143;55.940;37.496;2023-02-05T02:34:00;97521.50;;;-2.59;100.00
69848;BME280;57143;55.940;37.496;2023-02-05T02:36:31;97573.91;;;-2.40;100.00
69848;BME280;57143;55.940;37.496;2023-02-05T02:39:05;97564.78;;;-2.37;100.00
69848;BME280;57143;55.940;37.496;2023-02-05T02:41:38;97577.00;;;-2.36;100.00
69848;BME280;57143;55.940;37.496;2023-02-05T02:44:13;97559.75;;;-2.47;100.00
69848;BME280;57143;55.940;37.496;2023-02-05T02:46:44;97558.09;;;-2.33;100.00
69848;BME280;57143;55.940;37.496;2023-02-05T02:49:15;97506.59;;;-2.60;100.00
69848;BME280;57143;55.940;37.496;2023-02-05T02:51:45;97560.03;;;-2.63;100.00
69848;BME280;57143;55.940;37.496;2023-02-05T02:54:16;97582.69;;;-2.39;100.00
69848;BME280;57143;55.940;37.496;2023-02-05T02:56:45;97575.88;;;-2.48;100.00
69848;BME280;57143;55.940;37.496;2023-02-05T02:59:17;97611.88;;;-2.39;100.00
69848;BME280;57143;55.940;37.496;2023-02-05T03:01:48;97603.66;;;-2.44;100.00
69848;BME280;57143;55.940;37.496;2023-02-05T03:04:20;97610.16;;;-2.47;100.00
69848;BME280;57143;55.940;37.496;2023-02-05T03:06:51;97620.22;;;-2.57;100.00
69848;BME280;57143;55.940;37.496;2023-02-05T03:09:24;97624.91;;;-2.59;100.00
69848;BME280;57143;55.940;37.496;2023-02-05T03:11:53;97638.72;;;-2.63;100.00
69848;BME280;57143;55.940;37.496;2023-02-05T03:14:21;97639.56;;;-2.63;100.00
69848;BME280;57143;55.940;37.496;2023-02-05T03:16:48;97646.69;;;-2.63;100.00
69848;BME280;57143;55.940;37.496;2023-02-05T03:19:16;97647.69;;;-2.64;100.00
69848;BME280;57143;55.940;37.496;2023-02-05T03:21:47;97632.72;;;-2.72;100.00
69848;BME280;57143;55.940;37.496;2023-02-05T03:24:16;97655.66;;;-2.64;100.00
69848;BME280;57143;55.940;37.496;2023-02-05T03:26:43;97654.94;;;-2.73;100.00
69848;BME280;57143;55.940;37.496;2023-02-05T03:29:12;97645.97;;;-2.86;100.00
69848;BME280;57143;55.940;37.496;2023-02-05T03:31:47;97667.72;;;-2.76;100.00
69848;BME280;57143;55.940;37.496;2023-02-05T03:34:28;97654.00;;;-2.94;100.00
69848;BME280;57143;55.940;37.496;2023-02-05T03:37:06;97654.09;;;-2.88;100.00
69848;BME280;57143;55.940;37.496;2023-02-05T03:39:45;97651.63;;;-2.89;100.00
69848;BME280;57143;55.940;37.496;2023-02-05T03:42:28;97655.31;;;-2.90;100.00
69848;BME280;57143;55.940;37.496;2023-02-05T03:45:17;97656.56;;;-3.01;100.00
69848;BME280;57143;55.940;37.496;2023-02-05T03:48:01;97657.09;;;-3.05;100.00
69848;BME280;57143;55.940;37.496;2023-02-05T03:50:35;97640.19;;;-3.19;100.00
69848;BME280;57143;55.940;37.496;2023-02-05T03:53:11;97649.16;;;-3.20;100.00
69848;BME280;57143;55.940;37.496;2023-02-05T03:55:45;97625.50;;;-3.36;100.00
69848;BME280;57143;55.940;37.496;2023-02-05T03:58:19;97637.56;;;-3.33;100.00
69848;BME280;57143;55.940;37.496;2023-02-05T04:00:49;97636.28;;;-3.23;100.00
69848;BME280;57143;55.940;37.496;2023-02-05T04:03:18;97634.63;;;-3.24;100.00
69848;BME280;57143;55.940;37.496;2023-02-05T04:05:45;97635.38;;;-3.30;100.00
69848;BME280;57143;55.940;37.496;2023-02-05T04:08:12;97621.94;;;-3.28;100.00
69848;BME280;57143;55.940;37.496;2023-02-05T04:10:39;97623.84;;;-3.22;100.00
69848;BME280;57143;55.940;37.496;2023-02-05T04:13:06;97610.88;;;-3.17;100.00
69848;BME280;57143;55.940;37.496;2023-02-05T04:15:33;97605.88;;;-3.27;100.00
69848;BME280;57143;55.940;37.496;2023-02-05T04:18:01;97579.94;;;-3.31;100.00
69848;BME280;57143;55.940;37.496;2023-02-05T04:20:29;97566.41;;;-3.36;100.00
69848;BME280;57143;55.940;37.496;2023-02-05T04:22:56;97591.88;;;-3.21;100.00
69848;BME280;57143;55.940;37.496;2023-02-05T04:25:23;97586.69;;;-3.14;100.00
69848;BME280;57143;55.940;37.496;2023-02-05T04:27:50;97570.59;;;-3.27;100.00
69848;BME280;57143;55.940;37.496;2023-02-05T04:30:18;97587.41;;;-3.20;100.00
69848;BME280;57143;55.940;37.496;2023-02-05T04:32:45;97586.69;;;-3.29;100.00
69848;BME280;57143;55.940;37.496;2023-02-05T04:35:12;97589.97;;;-3.27;100.00
69848;BME280;57143;55.940;37.496;2023-02-05T04:37:41;97550.25;;;-3.56;100.00
69848;BME280;57143;55.940;37.496;2023-02-05T04:40:09;97593.72;;;-3.36;100.00
69848;BME280;57143;55.940;37.496;2023-02-05T04:42:36;97591.06;;;-3.36;100.00
69848;BME280;57143;55.940;37.496;2023-02-05T04:45:03;97582.75;;;-3.47;100.00
69848;BME280;57143;55.940;37.496;2023-02-05T04:47:32;97576.81;;;-3.49;100.00
69848;BME280;57143;55.940;37.496;2023-02-05T04:49:59;97561.94;;;-3.50;100.00
69848;BME280;57143;55.940;37.496;2023-02-05T04:52:27;97557.00;;;-3.54;100.00
69848;BME280;57143;55.940;37.496;2023-02-05T04:54:55;97554.91;;;-3.58;100.00
69848;BME280;57143;55.940;37.496;2023-02-05T04:57:22;97551.88;;;-3.55;100.00
69848;BME280;57143;55.940;37.496;2023-02-05T04:59:50;97543.94;;;-3.55;100.00
69848;BME280;57143;55.940;37.496;2023-02-05T05:02:17;97549.59;;;-3.58;100.00
69848;BME280;57143;55.940;37.496;2023-02-05T05:04:44;97513.66;;;-3.82;100.00
69848;BME280;57143;55.940;37.496;2023-02-05T05:07:11;97547.41;;;-3.69;100.00
69848;BME280;57143;55.940;37.496;2023-02-05T05:09:38;97540.00;;;-3.74;100.00
69848;BME280;57143;55.940;37.496;2023-02-05T05:12:07;97526.13;;;-3.76;100.00
69848;BME280;57143;55.940;37.496;2023-02-05T05:14:34;97531.63;;;-3.77;100.00
69848;BME280;57143;55.940;37.496;2023-02-05T05:17:02;97520.84;;;-3.76;100.00
69848;BME280;57143;55.940;37.496;2023-02-05T05:19:29;97524.03;;;-3.80;100.00
69848;BME280;57143;55.940;37.496;2023-02-05T05:21:57;97515.00;;;-3.86;100.00
69848;BME280;57143;55.940;37.496;2023-02-05T05:24:24;97510.19;;;-3.68;100.00
69848;BME280;57143;55.940;37.496;2023-02-05T05:26:51;97496.84;;;-3.74;100.00
69848;BME280;57143;55.940;37.496;2023-02-05T05:29:20;97491.34;;;-3.73;100.00
69848;BME280;57143;55.940;37.496;2023-02-05T05:31:47;97484.53;;;-3.67;100.00
69848;BME280;57143;55.940;37.496;2023-02-05T05:34:17;97457.16;;;-3.74;100.00
69848;BME280;57143;55.940;37.496;2023-02-05T05:36:44;97463.88;;;-3.57;100.00
69848;BME280;57143;55.940;37.496;2023-02-05T05:39:12;97453.59;;;-3.52;100.00
69848;BME280;57143;55.940;37.496;2023-02-05T05:41:57;97452.13;;;-3.40;100.00
69848;BME280;57143;55.940;37.496;2023-02-05T05:44:43;97453.56;;;-3.37;100.00
69848;BME280;57143;55.940;37.496;2023-02-05T05:47:14;97435.31;;;-3.47;100.00
69848;BME280;57143;55.940;37.496;2023-02-05T05:49:42;97448.63;;;-3.40;100.00
69848;BME280;57143;55.940;37.496;2023-02-05T05:52:09;97407.50;;;-3.72;100.00
69848;BME280;57143;55.940;37.496;2023-02-05T05:54:36;97424.28;;;-3.65;100.00
69848;BME280;57143;55.940;37.496;2023-02-05T05:57:04;97420.34;;;-3.55;100.00
69848;BME280;57143;55.940;37.496;2023-02-05T05:59:31;97445.34;;;-3.42;100.00
69848;BME280;57143;55.940;37.496;2023-02-05T06:02:01;97448.72;;;-3.48;100.00
69848;BME280;57143;55.940;37.496;2023-02-05T06:04:29;97453.75;;;-3.39;100.00
69848;BME280;57143;55.940;37.496;2023-02-05T06:06:56;97458.38;;;-3.26;100.00
69848;BME280;57143;55.940;37.496;2023-02-05T06:09:23;97448.00;;;-3.42;100.00
69848;BME280;57143;55.940;37.496;2023-02-05T06:11:51;97447.16;;;-3.28;100.00
69848;BME280;57143;55.940;37.496;2023-02-05T06:14:18;97473.56;;;-3.35;100.00
69848;BME280;57143;55.940;37.496;2023-02-05T06:16:45;97476.03;;;-3.33;100.00
69848;BME280;57143;55.940;37.496;2023-02-05T06:19:14;97490.56;;;-3.44;100.00
69848;BME280;57143;55.940;37.496;2023-02-05T06:21:41;97458.06;;;-3.67;100.00
69848;BME280;57143;55.940;37.496;2023-02-05T06:24:08;97492.41;;;-3.59;100.00
69848;BME280;57143;55.940;37.496;2023-02-05T06:26:35;97442.38;;;-3.83;100.00
69848;BME280;57143;55.940;37.496;2023-02-05T06:29:02;97496.94;;;-3.53;100.00
69848;BME280;57143;55.940;37.496;2023-02-05T06:31:30;97500.66;;;-3.33;100.00
69848;BME280;57143;55.940;37.496;2023-02-05T06:33:57;97529.06;;;-3.12;100.00
69848;BME280;57143;55.940;37.496;2023-02-05T06:36:27;97531.84;;;-2.99;100.00
69848;BME280;57143;55.940;37.496;2023-02-05T06:38:54;97532.31;;;-2.96;100.00
69848;BME280;57143;55.940;37.496;2023-02-05T06:41:21;97509.31;;;-3.10;100.00
69848;BME280;57143;55.940;37.496;2023-02-05T06:43:48;97550.56;;;-2.86;100.00
69848;BME280;57143;55.940;37.496;2023-02-05T06:46:15;97562.81;;;-2.85;100.00
69848;BME280;57143;55.940;37.496;2023-02-05T06:48:42;97573.09;;;-2.76;100.00
69848;BME280;57143;55.940;37.496;2023-02-05T06:51:10;97588.88;;;-2.89;100.00
69848;BME280;57143;55.940;37.496;2023-02-05T06:53:39;97594.69;;;-2.79;100.00
69848;BME280;57143;55.940;37.496;2023-02-05T06:56:06;97606.38;;;-2.73;100.00
69848;BME280;57143;55.940;37.496;2023-02-05T06:58:34;97595.16;;;-2.90;100.00
69848;BME280;57143;55.940;37.496;2023-02-05T07:01:01;97633.09;;;-2.75;100.00
69848;BME280;57143;55.940;37.496;2023-02-05T07:03:28;97630.31;;;-2.67;100.00
69848;BME280;57143;55.940;37.496;2023-02-05T07:06:01;97649.44;;;-2.71;100.00
69848;BME280;57143;55.940;37.496;2023-02-05T07:08:28;97672.81;;;-2.60;100.00
69848;BME280;57143;55.940;37.496;2023-02-05T07:10:57;97686.25;;;-2.62;100.00
69848;BME280;57143;55.940;37.496;2023-02-05T07:13:24;97665.81;;;-2.68;100.00
69848;BME280;57143;55.940;37.496;2023-02-05T07:15:51;97679.56;;;-2.43;100.00
69848;BME280;57143;55.940;37.496;2023-02-05T07:18:18;97706.03;;;-2.14;100.00
69848;BME280;57143;55.940;37.496;2023-02-05T07:20:49;97721.88;;;-2.20;100.00
69848;BME280;57143;55.940;37.496;2023-02-05T07:23:16;97735.75;;;-1.68;100.00
69848;BME280;57143;55.940;37.496;2023-02-05T07:25:43;97722.16;;;-1.10;100.00
69848;BME280;57143;55.940;37.496;2023-02-05T07:28:12;97740.00;;;-0.49;100.00
69848;BME280;57143;55.940;37.496;2023-02-05T07:30:39;97760.00;;;-0.19;100.00
69848;BME280;57143;55.940;37.496;2023-02-05T07:33:06;97752.56;;;0.11;100.00
69848;BME280;57143;55.940;37.496;2023-02-05T07:35:37;97802.72;;;0.61;100.00
69848;BME280;57143;55.940;37.496;2023-02-05T07:38:04;97894.25;;;0.81;100.00
69848;BME280;57143;55.940;37.496;2023-02-05T07:40:32;97917.88;;;0.91;100.00
69848;BME280;57143;55.940;37.496;2023-02-05T07:42:59;97993.09;;;1.21;100.00
69848;BME280;57143;55.940;37.496;2023-02-05T07:45:28;98028.56;;;1.14;100.00
69848;BME280;57143;55.940;37.496;2023-02-05T07:47:55;98122.56;;;1.16;100.00
69848;BME280;57143;55.940;37.496;2023-02-05T07:50:22;98142.81;;;1.45;100.00
69848;BME280;57143;55.940;37.496;2023-02-05T07:52:49;98213.44;;;1.08;100.00
69848;BME280;57143;55.940;37.496;2023-02-05T07:55:16;98210.16;;;1.41;100.00
69848;BME280;57143;55.940;37.496;2023-02-05T07:57:46;98277.94;;;1.46;100.00
69848;BME280;57143;55.940;37.496;2023-02-05T08:00:17;98295.94;;;1.10;100.00
69848;BME280;57143;55.940;37.496;2023-02-05T08:02:51;98193.97;;;-0.33;100.00
69848;BME280;57143;55.940;37.496;2023-02-05T08:05:18;98366.28;;;0.52;100.00
69848;BME280;57143;55.940;37.496;2023-02-05T08:07:49;98383.31;;;0.37;100.00
69848;BME280;57143;55.940;37.496;2023-02-05T08:10:21;98352.53;;;0.84;100.00
69848;BME280;57143;55.940;37.496;2023-02-05T08:12:50;98359.72;;;0.69;100.00
69848;BME280;57143;55.940;37.496;2023-02-05T08:15:17;98326.47;;;1.07;100.00
69848;BME280;57143;55.940;37.496;2023-02-05T08:17:51;98359.25;;;1.71;100.00
69848;BME280;57143;55.940;37.496;2023-02-05T08:20:18;98371.56;;;2.27;100.00
69848;BME280;57143;55.940;37.496;2023-02-05T08:22:47;98411.50;;;2.83;100.00
69848;BME280;57143;55.940;37.496;2023-02-05T08:25:14;98478.78;;;2.80;100.00
69848;BME280;57143;55.940;37.496;2023-02-05T08:27:42;98492.56;;;2.77;100.00
69848;BME280;57143;55.940;37.496;2023-02-05T08:30:13;98624.44;;;2.98;100.00
69848;BME280;57143;55.940;37.496;2023-02-05T08:32:40;98708.50;;;2.83;100.00
69848;BME280;57143;55.940;37.496;2023-02-05T08:35:09;98782.19;;;2.28;100.00
69848;BME280;57143;55.940;37.496;2023-02-05T08:37:36;98698.81;;;1.25;100.00
69848;BME280;57143;55.940;37.496;2023-02-05T08:40:04;98804.28;;;1.35;100.00
69848;BME280;57143;55.940;37.496;2023-02-05T08:42:31;98808.50;;;1.30;100.00
69848;BME280;57143;55.940;37.496;2023-02-05T08:44:58;98755.41;;;1.20;100.00
69848;BME280;57143;55.940;37.496;2023-02-05T08:47:25;98770.03;;;0.87;100.00
69848;BME280;57143;55.940;37.496;2023-02-05T08:49:52;98744.69;;;0.68;100.00
69848;BME280;57143;55.940;37.496;2023-02-05T08:52:21;98726.00;;;0.91;100.00
69848;BME280;57143;55.940;37.496;2023-02-05T08:54:48;98747.63;;;-0.03;100.00
69848;BME280;57143;55.940;37.496;2023-02-05T08:57:16;98688.75;;;0.15;100.00
69848;BME280;57143;55.940;37.496;2023-02-05T08:59:43;98608.91;;;-0.46;100.00
69848;BME280;57143;55.940;37.496;2023-02-05T09:02:19;98587.56;;;-0.61;100.00
69848;BME280;57143;55.940;37.496;2023-02-05T09:04:49;98590.81;;;-0.51;100.00
69848;BME280;57143;55.940;37.496;2023-02-05T09:07:16;98513.47;;;-0.27;100.00
69848;BME280;57143;55.940;37.496;2023-02-05T09:09:48;98523.16;;;-0.11;100.00
69848;BME280;57143;55.940;37.496;2023-02-05T09:12:16;98510.53;;;-0.17;100.00
69848;BME280;57143;55.940;37.496;2023-02-05T09:14:44;98497.13;;;-0.24;100.00
69848;BME280;57143;55.940;37.496;2023-02-05T09:17:11;98461.94;;;0.03;100.00
69848;BME280;57143;55.940;37.496;2023-02-05T09:19:40;98421.41;;;-0.21;100.00
69848;BME280;57143;55.940;37.496;2023-02-05T09:22:08;98451.09;;;-0.10;100.00
69848;BME280;57143;55.940;37.496;2023-02-05T09:24:36;98444.72;;;-0.23;100.00
69848;BME280;57143;55.940;37.496;2023-02-05T09:27:04;98447.69;;;-0.41;100.00
69848;BME280;57143;55.940;37.496;2023-02-05T09:29:32;98427.84;;;-0.53;100.00
69848;BME280;57143;55.940;37.496;2023-02-05T09:31:59;98421.75;;;-0.39;100.00
69848;BME280;57143;55.940;37.496;2023-02-05T09:34:26;98403.50;;;-0.27;100.00
69848;BME280;57143;55.940;37.496;2023-02-05T09:36:54;98381.38;;;-0.28;100.00
69848;BME280;57143;55.940;37.496;2023-02-05T09:39:21;98397.28;;;-0.20;100.00
69848;BME280;57143;55.940;37.496;2023-02-05T09:41:53;98391.16;;;-0.43;100.00
69848;BME280;57143;55.940;37.496;2023-02-05T09:44:40;98393.22;;;-0.30;100.00
69848;BME280;57143;55.940;37.496;2023-02-05T09:47:14;98367.63;;;-0.17;100.00
69848;BME280;57143;55.940;37.496;2023-02-05T09:49:47;98382.69;;;0.06;100.00
69848;BME280;57143;55.940;37.496;2023-02-05T09:52:21;98389.13;;;-0.04;100.00
69848;BME280;57143;55.940;37.496;2023-02-05T09:54:54;98333.63;;;-0.29;100.00
69848;BME280;57143;55.940;37.496;2023-02-05T09:57:30;98375.16;;;-0.06;100.00
69848;BME280;57143;55.940;37.496;2023-02-05T10:00:00;98391.94;;;-0.20;100.00
69848;BME280;57143;55.940;37.496;2023-02-05T10:02:35;98368.81;;;0.10;100.00
69848;BME280;57143;55.940;37.496;2023-02-05T10:05:10;98371.38;;;0.03;100.00
69848;BME280;57143;55.940;37.496;2023-02-05T10:07:46;98365.22;;;0.32;100.00
69848;BME280;57143;55.940;37.496;2023-02-05T10:10:23;98376.06;;;0.31;100.00
69848;BME280;57143;55.940;37.496;2023-02-05T10:13:07;98387.34;;;0.47;100.00
69848;BME280;57143;55.940;37.496;2023-02-05T10:16:00;98361.91;;;0.16;100.00
69848;BME280;57143;55.940;37.496;2023-02-05T10:18:40;98413.66;;;0.07;100.00
69848;BME280;57143;55.940;37.496;2023-02-05T10:21:19;98419.03;;;-0.02;100.00
69848;BME280;57143;55.940;37.496;2023-02-05T10:24:15;98405.00;;;0.05;100.00
69848;BME280;57143;55.940;37.496;2023-02-05T10:26:49;98378.16;;;0.35;100.00
69848;BME280;57143;55.940;37.496;2023-02-05T10:29:29;98403.53;;;0.02;100.00
69848;BME280;57143;55.940;37.496;2023-02-05T10:32:08;98362.66;;;0.10;100.00
69848;BME280;57143;55.940;37.496;2023-02-05T10:34:52;98366.22;;;0.02;100.00
69848;BME280;57143;55.940;37.496;2023-02-05T10:37:29;98374.56;;;-0.30;100.00
69848;BME280;57143;55.940;37.496;2023-02-05T10:39:58;98362.28;;;0.27;100.00
69848;BME280;57143;55.940;37.496;2023-02-05T10:42:29;98350.06;;;0.18;100.00
69848;BME280;57143;55.940;37.496;2023-02-05T10:45:03;98362.94;;;-0.15;100.00
69848;BME280;57143;55.940;37.496;2023-02-05T10:50:45;98330.00;;;-0.65;100.00
69848;BME280;57143;55.940;37.496;2023-02-05T10:53:18;98321.31;;;-0.59;100.00
69848;BME280;57143;55.940;37.496;2023-02-05T10:55:45;98238.53;;;-0.79;100.00
69848;BME280;57143;55.940;37.496;2023-02-05T10:58:36;98284.63;;;-0.49;100.00
69848;BME280;57143;55.940;37.496;2023-02-05T11:01:05;98232.31;;;-0.71;100.00
69848;BME280;57143;55.940;37.496;2023-02-05T11:03:34;98269.00;;;-0.67;100.00
69848;BME280;57143;55.940;37.496;2023-02-05T11:06:06;98254.97;;;-0.61;100.00
69848;BME280;57143;55.940;37.496;2023-02-05T11:08:36;98196.59;;;-0.91;100.00
69848;BME280;57143;55.940;37.496;2023-02-05T11:11:05;98223.56;;;-0.94;100.00
69848;BME280;57143;55.940;37.496;2023-02-05T11:13:38;98219.72;;;-0.92;100.00
69848;BME280;57143;55.940;37.496;2023-02-05T11:16:08;98192.22;;;-0.70;100.00
69848;BME280;57143;55.940;37.496;2023-02-05T11:18:38;98197.66;;;-0.49;100.00
69848;BME280;57143;55.940;37.496;2023-02-05T11:21:07;98198.63;;;-0.50;100.00
69848;BME280;57143;55.940;37.496;2023-02-05T11:23:35;98199.66;;;-0.51;100.00
69848;BME280;57143;55.940;37.496;2023-02-05T11:26:13;98135.38;;;-0.83;100.00
69848;BME280;57143;55.940;37.496;2023-02-05T11:28:42;98177.34;;;-0.35;100.00
69848;BME280;57143;55.940;37.496;2023-02-05T11:31:28;98185.13;;;-0.34;100.00
69848;BME280;57143;55.940;37.496;2023-02-05T11:34:11;98172.63;;;-0.19;100.00
69848;BME280;57143;55.940;37.496;2023-02-05T11:36:47;98170.22;;;-0.14;100.00
69848;BME280;57143;55.940;37.496;2023-02-05T11:39:27;98195.88;;;0.09;100.00
69848;BME280;57143;55.940;37.496;2023-02-05T11:41:56;98177.16;;;0.02;100.00
69848;BME280;57143;55.940;37.496;2023-02-05T11:44:24;98197.66;;;-0.13;100.00
69848;BME280;57143;55.940;37.496;2023-02-05T11:46:53;98155.56;;;-0.24;100.00
69848;BME280;57143;55.940;37.496;2023-02-05T11:49:30;98204.16;;;-0.01;100.00
69848;BME280;57143;55.940;37.496;2023-02-05T11:51:59;98210.78;;;-0.12;100.00
69848;BME280;57143;55.940;37.496;2023-02-05T11:54:28;98119.34;;;-0.90;100.00
69848;BME280;57143;55.940;37.496;2023-02-05T11:57:02;98193.63;;;-0.09;100.00
69848;BME280;57143;55.940;37.496;2023-02-05T11:59:30;98146.84;;;-0.33;100.00
69848;BME280;57143;55.940;37.496;2023-02-05T12:04:58;98176.16;;;0.03;100.00
69848;BME280;57143;55.940;37.496;2023-02-05T12:07:29;98184.78;;;-0.45;100.00
69848;BME280;57143;55.940;37.496;2023-02-05T12:10:01;98146.44;;;-0.51;100.00
69848;BME280;57143;55.940;37.496;2023-02-05T12:12:33;98151.28;;;-0.40;100.00
69848;BME280;57143;55.940;37.496;2023-02-05T12:15:12;98151.91;;;-0.23;100.00
69848;BME280;57143;55.940;37.496;2023-02-05T12:17:48;98151.19;;;-0.32;100.00
69848;BME280;57143;55.940;37.496;2023-02-05T12:20:26;98141.97;;;-0.29;100.00
69848;BME280;57143;55.940;37.496;2023-02-05T12:23:23;98137.91;;;-0.11;100.00
69848;BME280;57143;55.940;37.496;2023-02-05T12:26:02;98154.38;;;-0.22;100.00
69848;BME280;57143;55.940;37.496;2023-02-05T12:28:41;98154.41;;;-0.51;100.00
69848;BME280;57143;55.940;37.496;2023-02-05T12:31:19;98155.19;;;-0.71;100.00
69848;BME280;57143;55.940;37.496;2023-02-05T12:34:00;98184.91;;;-0.68;100.00
69848;BME280;57143;55.940;37.496;2023-02-05T12:36:50;98182.41;;;-0.84;100.00
69848;BME280;57143;55.940;37.496;2023-02-05T12:39:32;98144.91;;;-0.89;100.00
69848;BME280;57143;55.940;37.496;2023-02-05T12:42:11;98171.97;;;-0.85;100.00
69848;BME280;57143;55.940;37.496;2023-02-05T12:44:54;98138.56;;;-0.88;100.00
69848;BME280;57143;55.940;37.496;2023-02-05T12:47:41;98133.91;;;-0.71;100.00
69848;BME280;57143;55.940;37.496;2023-02-05T12:50:37;98133.25;;;-0.73;100.00
69848;BME280;57143;55.940;37.496;2023-02-05T12:53:26;98105.22;;;-0.90;100.00
69848;BME280;57143;55.940;37.496;2023-02-05T12:56:14;98131.16;;;-0.78;100.00
69848;BME280;57143;55.940;37.496;2023-02-05T12:58:48;98120.06;;;-0.81;100.00
69848;BME280;57143;55.940;37.496;2023-02-05T13:01:20;98110.78;;;-0.71;100.00
69848;BME280;57143;55.940;37.496;2023-02-05T13:03:50;98092.53;;;-0.74;100.00
69848;BME280;57143;55.940;37.496;2023-02-05T13:06:22;98085.94;;;-0.92;100.00